Latest Weather Observations for Omeo

IDV60801

Issued at 11:35 pm EDT Sunday 23 November 2014 (issued every 30 minutes, with the page automatically refreshed every 10 minutes)

About weather observations | Map of weather stations | Latest weather observations for VIC | Other Formats
Station Details ID: 083090 Name: OMEO Lat: -37.10 Lon: 147.60 Height: 689.8 m
Data from the previous 72 hours. | See also: Recent months at Omeo
Date/Time
EDT
Temp
°C
App
Temp
°C
Dew
Point
Rel
Hum
%
Delta-T
°C
Wind Press
QNH
hPa
Press
MSL
hPa
Rain
since 9 am
mm
Dir
 
Spd
km/h
Gust
km/h
Spd
kts
Gust
kts
23/11:30pm 13.1 11.9 9.5 79 1.9 ESE 6 9 3 5 1016.1 1014.4 0.2
23/11:00pm 13.2 11.8 9.5 78 2.0 S 7 13 4 7 1016.1 1014.4 0.2
23/10:30pm 13.5 11.4 9.6 77 2.1 SSE 11 15 6 8 1017.0 1015.3 0.2
23/10:00pm 13.7 11.6 9.9 78 2.0 SSE 11 15 6 8 1016.9 1015.2 0.2
23/09:30pm 14.0 11.1 9.8 76 2.2 SSE 15 22 8 12 1016.9 1015.2 0.2
23/09:00pm 14.0 10.3 9.6 75 2.3 SSE 19 32 10 17 1016.3 1014.6 0.2
23/08:30pm 14.5 10.7 9.9 74 2.5 SE 20 35 11 19 1015.6 1013.9 0.2
23/08:00pm 15.7 11.7 10.5 71 2.8 SE 22 33 12 18 1015.2 1013.5 0.2
23/07:30pm 17.8 14.6 11.8 68 3.4 SE 20 32 11 17 1014.1 1012.4 0.2
23/07:00pm 20.3 16.6 12.8 62 4.4 SE 24 35 13 19 1013.0 1011.3 0.2
23/06:30pm 25.0 22.2 13.2 48 7.1 SE 20 30 11 16 1012.2 1010.4 0.2
23/06:00pm 28.7 25.4 9.4 30 11.1 NW 17 22 9 12 1012.0 1010.2 0.2
23/05:30pm 29.3 24.5 8.9 28 11.6 NW 24 39 13 21 1011.9 1010.1 0.2
23/05:00pm 29.6 27.0 9.2 28 11.7 W 13 20 7 11 1011.6 1009.9 0.2
23/04:30pm 30.1 25.1 7.9 25 12.5 W 24 39 13 21 1011.9 1010.1 0.2
23/04:00pm 31.4 27.0 9.0 25 12.9 NW 22 35 12 19 1011.5 1009.8 0.2
23/03:35pm 31.0 24.3 7.5 23 13.2 NW 32 50 17 27 1011.1 1009.3 0.2
23/03:30pm 31.3 25.4 7.7 23 13.3 NW 28 43 15 23 1011.2 1009.4 0.2
23/03:00pm 31.8 28.6 9.9 26 12.8 WNW 17 32 9 17 1011.3 1009.5 0.2
23/02:30pm 31.6 27.6 11.9 30 11.9 NNW 24 46 13 25 1011.4 1009.7 0.2
23/02:00pm 30.7 25.2 10.6 29 11.9 NNW 30 48 16 26 1011.4 1009.7 0.2
23/01:32pm 30.7 24.8 10.6 29 11.9 NNW 32 50 17 27 1011.5 1009.8 0.2
23/01:30pm 30.6 24.6 10.0 28 12.0 NNW 32 44 17 24 1011.6 1009.9 0.2
23/01:06pm 30.5 25.5 11.0 30 11.6 NNW 28 46 15 25 1011.7 1010.0 0.2
23/01:00pm 30.6 26.4 11.1 30 11.6 NNW 24 44 13 24 1011.9 1010.1 0.2
23/12:30pm 30.3 27.1 11.8 32 11.1 WNW 20 28 11 15 1012.1 1010.3 0.2
23/12:00pm 28.2 25.2 12.1 37 9.6 NNE 19 28 10 15 1012.5 1010.7 0.2
23/11:30am 27.5 25.2 13.1 41 8.7 N 17 28 9 15 1012.8 1011.1 0.2
23/11:00am 26.7 25.2 14.1 46 7.7 N 15 24 8 13 1013.1 1011.4 0.2
23/10:30am 24.7 22.9 13.3 49 6.8 N 15 20 8 11 1013.5 1011.7 0.2
23/10:00am 23.6 22.8 14.0 55 5.8 N 11 17 6 9 1013.7 1011.9 0.0
23/09:30am 22.1 20.7 13.5 58 5.1 N 13 19 7 10 1013.9 1012.2 0.0
23/09:00am 20.8 19.6 12.8 60 4.7 N 11 17 6 9 1014.0 1012.3 0.0
23/08:30am 19.9 19.3 13.4 66 3.8 N 9 13 5 7 1013.9 1012.2 0.0
23/08:00am 18.3 18.3 13.6 74 2.8 NNW 6 11 3 6 1013.7 1011.9 0.0
23/07:30am 16.2 16.2 13.5 84 1.6 NNW 6 7 3 4 1013.6 1011.8 0.0
23/07:00am 14.6 15.6 13.1 91 0.9 CALM 0 0 0 0 1013.5 1011.7 0.0
23/06:30am 13.8 13.4 12.4 91 0.8 NNW 6 9 3 5 1013.2 1011.5 0.0
23/06:00am 14.3 13.4 12.5 89 1.0 WNW 9 13 5 7 1013.0 1011.3 0.0
23/05:30am 14.4 13.4 12.4 88 1.1 N 9 13 5 7 1012.6 1010.8 0.0
23/05:00am 14.7 13.6 12.0 84 1.5 N 9 15 5 8 1012.8 1011.1 0.0
23/04:30am 14.8 13.5 12.5 86 1.3 N 11 17 6 9 1012.5 1010.7 0.0
23/04:00am 15.2 13.8 12.1 82 1.7 NNW 11 17 6 9 1012.2 1010.4 0.0
23/03:30am 16.5 15.8 12.1 75 2.5 N 7 13 4 7 1012.2 1010.4 0.0
23/03:00am 17.6 16.2 12.1 70 3.1 N 11 17 6 9 1012.1 1010.3 0.0
23/02:30am 17.8 16.6 11.6 67 3.5 NNE 9 15 5 8 1012.0 1010.2 0.0
23/02:00am 18.2 17.6 11.7 66 3.7 WSW 6 11 3 6 1012.4 1010.6 0.0
23/01:30am 18.9 13.8 11.9 64 4.0 WNW 30 48 16 26 1012.9 1011.2 0.0
23/01:11am 20.8 15.8 10.9 53 5.6 WNW 28 54 15 29 1013.0 1011.3 0.0
23/01:00am 21.2 16.8 10.4 50 6.1 WNW 24 43 13 23 1012.2 1010.4 0.0
23/12:44am 21.4 16.2 10.3 49 6.2 WNW 28 48 15 26 1012.7 1011.0 0.0
23/12:30am 21.4 17.4 10.3 49 6.2 WNW 22 39 12 21 1012.5 1010.7 0.0
23/12:00am 21.7 17.3 10.5 49 6.3 WNW 24 37 13 20 1013.2 1011.5 0.0
 
Date/Time
EDT
Temp
°C
App
Temp
°C
Dew
Point
Rel
Hum
%
Delta-T
°C
Wind Press
QNH
hPa
Press
MSL
hPa
Rain
since 9 am
mm
Dir
 
Spd
km/h
Gust
km/h
Spd
kts
Gust
kts
22/11:30pm 22.1 18.4 9.3 44 7.1 NNW 19 32 10 17 1013.5 1011.7 0.0
22/11:00pm 22.9 17.4 7.4 37 8.3 NNW 26 44 14 24 1012.8 1011.1 0.0
22/10:30pm 23.3 17.5 6.1 33 9.1 NNW 26 39 14 21 1012.4 1010.6 0.0
22/10:00pm 22.0 17.4 5.8 35 8.4 NW 19 26 10 14 1012.9 1011.2 0.0
22/09:30pm 21.8 17.7 6.1 36 8.2 N 17 24 9 13 1012.2 1010.4 0.0
22/09:00pm 21.4 17.8 6.9 39 7.7 NNW 15 19 8 10 1012.4 1010.6 0.0
22/08:30pm 21.4 18.3 7.3 40 7.5 NNW 13 17 7 9 1012.2 1010.4 0.0
22/08:00pm 22.2 18.2 6.8 37 8.2 NNW 17 22 9 12 1012.0 1010.2 0.0
22/07:30pm 23.4 18.7 6.2 33 9.1 NNW 20 32 11 17 1012.0 1010.2 0.0
22/07:00pm 24.0 19.0 6.3 32 9.4 NNW 22 33 12 18 1012.0 1010.2 0.0
22/06:30pm 24.0 19.6 7.6 35 8.9 NNW 20 33 11 18 1011.5 1009.8 0.0
22/06:00pm 24.3 19.6 7.9 35 9.0 N 22 30 12 16 1011.4 1009.7 0.0
22/05:30pm 24.2 18.7 7.4 34 9.1 N 26 35 14 19 1011.5 1009.8 0.0
22/05:00pm 25.5 19.4 6.7 30 10.1 N 28 41 15 22 1011.7 1010.0 0.0
22/04:30pm 25.9 20.3 7.0 30 10.3 N 26 39 14 21 1011.5 1009.8 0.0
22/04:00pm 24.9 19.6 6.6 31 9.8 NNW 24 33 13 18 1012.2 1010.4 0.0
22/03:30pm 25.8 20.9 4.9 26 10.9 NW 20 32 11 17 1012.6 1010.8 0.0
22/03:00pm 25.9 21.1 2.6 22 11.7 W 17 28 9 15 1013.0 1011.3 0.0
22/02:30pm 27.0 22.7 3.5 22 12.1 W 15 28 8 15 1013.0 1011.3 0.0
22/02:00pm 26.9 22.4 2.1 20 12.4 W 15 24 8 13 1012.7 1011.0 0.0
22/01:30pm 27.1 23.2 3.6 22 12.1 NNE 13 24 7 13 1012.7 1011.0 0.0
22/01:00pm 25.6 22.0 6.7 30 10.2 NNE 15 22 8 12 1012.8 1011.1 0.0
22/12:30pm 24.6 20.2 7.3 33 9.4 N 20 30 11 16 1012.9 1011.2 0.0
22/12:00pm 24.5 20.6 8.5 36 8.9 N 19 32 10 17 1013.1 1011.4 0.0
22/11:30am 23.7 19.3 7.3 35 8.8 N 20 28 11 15 1013.3 1011.6 0.0
22/11:00am 23.0 18.1 7.1 36 8.5 N 22 30 12 16 1013.5 1011.7 0.0
22/10:30am 21.9 17.1 7.3 39 7.8 N 22 32 12 17 1013.7 1011.9 0.0
22/10:00am 19.3 15.3 8.9 51 5.6 N 20 28 11 15 1013.8 1012.0 0.0
22/09:30am 17.6 14.2 10.7 64 3.8 N 19 24 10 13 1014.2 1012.5 0.0
22/09:00am 16.3 14.2 12.3 77 2.3 N 15 22 8 12 1014.5 1012.8 0.0
22/08:30am 14.1 11.3 11.4 84 1.5 NNW 17 22 9 12 1014.5 1012.8 0.0
22/08:00am 12.9 10.6 11.6 92 0.7 N 15 22 8 12 1014.4 1012.7 0.0
22/07:30am 12.5 10.2 11.6 94 0.5 N 15 20 8 11 1014.2 1012.5 0.0
22/07:00am 12.0 9.9 11.2 95 0.4 N 13 19 7 10 1013.9 1012.2 0.0
22/06:30am 11.8 9.3 11.0 95 0.4 N 15 19 8 10 1013.7 1011.9 0.0
22/06:00am 11.6 9.8 10.8 95 0.4 NNW 11 17 6 9 1013.6 1011.8 0.0
22/05:30am 11.5 9.7 10.7 95 0.4 N 11 15 6 8 1013.1 1011.4 0.0
22/05:00am 10.9 9.3 10.1 95 0.4 NNW 9 13 5 7 1013.2 1011.5 0.0
22/04:30am 10.8 9.7 9.9 94 0.5 N 6 9 3 5 1013.3 1011.6 0.0
22/04:00am 10.7 10.7 9.8 94 0.5 CALM 0 0 0 0 1013.5 1011.7 0.0
22/03:30am 10.6 10.6 9.7 94 0.5 CALM 0 0 0 0 1013.6 1011.8 0.0
22/03:00am 10.2 8.9 9.3 94 0.5 SSE 6 7 3 4 1013.7 1011.9 0.0
22/02:30am 9.8 8.2 8.9 94 0.5 SE 7 9 4 5 1014.0 1012.3 0.0
22/02:00am 9.6 7.9 8.5 93 0.6 SSE 7 9 4 5 1014.3 1012.6 0.0
22/01:30am 9.6 7.9 8.2 91 0.7 SE 7 9 4 5 1014.5 1012.8 0.0
22/01:00am 11.0 9.2 9.4 90 0.8 SE 9 13 5 7 1014.8 1013.1 0.0
22/12:30am 12.2 12.3 10.3 88 1.0 CALM 0 0 0 0 1015.1 1013.3 0.0
22/12:00am 13.1 12.0 10.8 86 1.2 SE 7 9 4 5 1015.1 1013.3 0.0
 
Date/Time
EDT
Temp
°C
App
Temp
°C
Dew
Point
Rel
Hum
%
Delta-T
°C
Wind Press
QNH
hPa
Press
MSL
hPa
Rain
since 9 am
mm
Dir
 
Spd
km/h
Gust
km/h
Spd
kts
Gust
kts
21/11:30pm 13.7 14.1 11.2 85 1.4 CALM 0 0 0 0 1015.3 1013.6 0.0
21/11:00pm 13.8 14.2 11.1 84 1.5 CALM 0 2 0 1 1015.3 1013.6 0.0
21/10:30pm 13.8 13.0 11.1 84 1.5 SSE 6 9 3 5 1015.3 1013.6 0.0
21/10:00pm 13.7 12.3 11.0 84 1.5 SSE 9 17 5 9 1015.1 1013.3 0.0
21/09:30pm 13.9 12.6 11.2 84 1.5 S 9 13 5 7 1014.8 1013.1 0.0
21/09:00pm 14.0 11.6 11.3 84 1.5 SSE 15 24 8 13 1014.5 1012.8 0.0
21/08:30pm 14.2 11.4 11.5 84 1.5 SSE 17 24 9 13 1014.2 1012.5 0.0
21/08:00pm 14.5 11.8 11.8 84 1.5 SSE 17 24 9 13 1013.7 1011.9 0.0
21/07:30pm 14.9 12.3 12.0 83 1.6 SSE 17 28 9 15 1013.1 1011.4 0.0
21/07:00pm 15.2 12.2 12.0 81 1.8 SSE 19 33 10 18 1012.5 1010.7 0.0
21/06:30pm 16.1 13.1 12.5 79 2.1 SSE 20 32 11 17 1011.9 1010.1 0.0
21/06:00pm 17.6 13.8 12.5 72 2.9 SE 24 35 13 19 1011.3 1009.5 0.0
21/05:30pm 19.2 16.2 12.7 66 3.8 SE 20 30 11 16 1010.9 1009.1 0.0
21/05:00pm 18.7 15.2 12.2 66 3.7 SE 22 33 12 18 1010.7 1008.9 0.0
21/04:30pm 20.6 17.8 13.3 63 4.3 SE 20 32 11 17 1010.4 1008.6 0.0
21/04:00pm 20.0 17.1 13.9 68 3.6 SE 22 33 12 18 1010.2 1008.5 0.0
21/03:30pm 20.3 16.8 13.3 64 4.1 SE 24 39 13 21 1010.0 1008.2 0.0
21/03:00pm 21.4 17.2 13.6 61 4.7 SE 28 41 15 22 1009.8 1008.0 0.0
21/02:30pm 24.7 22.1 13.9 51 6.5 S 20 32 11 17 1009.6 1007.8 0.0
21/02:00pm 25.3 21.2 7.9 33 9.6 W 19 32 10 17 1009.4 1007.6 0.0
21/01:30pm 24.0 21.3 7.2 34 9.1 N 11 19 6 10 1009.3 1007.5 0.0
21/01:00pm 24.5 20.2 8.0 35 9.1 WNW 20 32 11 17 1009.5 1007.7 0.0
21/12:30pm 24.3 20.9 9.1 38 8.5 NNW 17 24 9 13 1009.5 1007.7 0.0
21/12:00pm 24.1 19.6 8.5 37 8.6 WNW 22 33 12 18 1009.7 1007.9 0.0
21/11:30am 23.0 18.6 9.0 41 7.8 W 22 33 12 18 1009.9 1008.1 0.0
21/11:00am 22.7 19.3 10.5 46 6.9 W 19 26 10 14 1009.8 1008.0 0.0
21/10:30am 21.1 17.4 11.4 54 5.6 N 22 33 12 18 1009.6 1007.8 0.0
21/10:00am 21.9 18.3 11.9 53 5.8 N 22 44 12 24 1009.1 1007.3 0.0
21/09:30am 20.7 17.0 11.6 56 5.2 N 22 32 12 17 1009.3 1007.5 0.0
21/09:00am 20.8 18.7 12.5 59 4.8 N 15 22 8 12 1009.5 1007.7 0.0
21/08:30am 19.5 17.6 11.8 61 4.4 N 13 20 7 11 1009.5 1007.7 0.0
21/08:00am 18.8 16.5 11.9 64 3.9 N 15 22 8 12 1009.2 1007.4 0.0
21/07:30am 18.5 16.9 11.6 64 3.9 NNW 11 17 6 9 1009.0 1007.2 0.0
21/07:00am 16.2 14.4 10.9 71 2.9 N 11 15 6 8 1008.6 1006.8 0.0
21/06:30am 15.3 13.8 10.5 73 2.6 N 9 13 5 7 1008.4 1006.6 0.0
21/06:00am 14.8 13.6 10.4 75 2.4 NNW 7 11 4 6 1008.1 1006.3 0.0
21/05:30am 14.9 13.1 10.7 76 2.3 NNW 11 15 6 8 1007.5 1005.6 0.0
21/05:00am 15.2 13.0 10.8 75 2.4 NNW 13 19 7 10 1006.9 1005.1 0.0
21/04:30am 15.3 13.6 11.1 76 2.3 NNW 11 19 6 10 1006.7 1004.9 0.0
21/04:00am 14.7 11.9 11.5 81 1.8 NNW 17 26 9 14 1006.3 1004.5 0.0
21/03:30am 14.7 12.4 11.7 82 1.7 NW 15 19 8 10 1006.7 1004.9 0.0
21/03:00am 15.4 13.1 11.6 78 2.1 N 15 24 8 13 1006.7 1004.9 0.0
21/02:30am 15.1 12.4 11.7 80 1.9 NNW 17 22 9 12 1007.1 1005.3 0.0
21/02:00am 16.7 12.5 11.2 70 3.1 N 24 32 13 17 1007.7 1005.9 0.0
21/01:30am 16.2 14.2 11.6 74 2.6 NNW 13 22 7 12 1008.5 1006.7 0.0
21/01:00am 16.2 13.9 11.8 75 2.5 N 15 24 8 13 1009.5 1007.7 0.0
21/12:30am 15.4 14.9 12.0 80 1.9 N 6 9 3 5 1010.6 1008.8 0.0
21/12:00am 15.8 15.6 11.8 77 2.2 SE 4 9 2 5 1011.0 1009.2 0.0

Other Formats:

Comma delimited format used in spreadsheet applications
http://www.bom.gov.au/fwo/IDV60801/IDV60801.94908.axf

JavaScript Object Notation format (JSON) in row-major order
http://www.bom.gov.au/fwo/IDV60801/IDV60801.94908.json